createdAt,value
2023-03-22T00:02:00.359Z,13.08
2023-03-22T00:05:06.707Z,13.10
2023-03-22T00:08:11.354Z,13.36
2023-03-22T00:11:15.474Z,13.54
2023-03-22T00:14:19.874Z,13.23
2023-03-22T00:17:26.482Z,13.53
2023-03-22T00:20:34.020Z,13.58
2023-03-22T00:23:38.294Z,13.36
2023-03-22T00:26:42.382Z,13.34
2023-03-22T00:29:46.334Z,12.94
2023-03-22T00:32:50.430Z,13.09
2023-03-22T00:35:59.380Z,13.18
2023-03-22T00:39:03.509Z,13.18
2023-03-22T00:42:07.800Z,13.01
2023-03-22T00:45:13.639Z,13.23
2023-03-22T00:48:17.660Z,13.28
2023-03-22T00:51:23.058Z,13.47
2023-03-22T00:54:27.647Z,13.58
2023-03-22T00:57:31.618Z,13.68
2023-03-22T01:00:35.907Z,13.66
2023-03-22T01:03:39.980Z,13.65
2023-03-22T01:06:47.445Z,13.27
2023-03-22T01:09:52.477Z,13.49
2023-03-22T01:12:57.183Z,13.14
2023-03-22T01:16:01.265Z,12.64
2023-03-22T01:19:05.501Z,12.81
2023-03-22T01:22:11.119Z,12.88
2023-03-22T01:25:15.272Z,12.65
2023-03-22T01:28:19.428Z,12.89
2023-03-22T01:31:23.426Z,13.01
2023-03-22T01:34:28.086Z,12.84
2023-03-22T01:37:34.304Z,12.58
2023-03-22T01:40:39.285Z,12.59
2023-03-22T01:43:44.513Z,12.42
2023-03-22T01:46:50.063Z,12.52
2023-03-22T01:49:54.526Z,12.42
2023-03-22T01:53:01.876Z,12.50
2023-03-22T01:56:11.205Z,12.51
2023-03-22T01:59:16.682Z,12.05
2023-03-22T02:02:35.797Z,12.18
2023-03-22T02:05:50.404Z,12.14
2023-03-22T02:08:58.263Z,11.96
2023-03-22T02:12:13.921Z,12.01
2023-03-22T02:15:25.592Z,11.89
2023-03-22T02:19:03.169Z,11.97
2023-03-22T02:22:31.572Z,11.84
2023-03-22T02:25:57.094Z,11.58
2023-03-22T02:29:09.413Z,11.55
2023-03-22T02:32:29.826Z,11.47
2023-03-22T02:36:06.005Z,11.47
2023-03-22T02:39:17.300Z,11.84
2023-03-22T02:42:39.196Z,11.77
2023-03-22T02:45:48.773Z,11.75
2023-03-22T02:48:59.275Z,11.84
2023-03-22T02:52:10.920Z,11.83
2023-03-22T02:55:22.542Z,11.92
2023-03-22T02:58:30.745Z,12.23
2023-03-22T03:01:39.141Z,12.29
2023-03-22T03:04:47.952Z,12.41
2023-03-22T03:07:56.377Z,12.26
2023-03-22T03:11:02.265Z,12.32
2023-03-22T03:14:06.854Z,12.06
2023-03-22T03:17:22.060Z,12.18
2023-03-22T03:20:34.693Z,12.25
2023-03-22T03:23:51.174Z,12.20
2023-03-22T03:27:02.744Z,12.19
2023-03-22T03:30:12.408Z,12.27
2023-03-22T03:33:24.755Z,11.94
2023-03-22T03:36:30.236Z,12.20
2023-03-22T03:39:39.264Z,12.22
2023-03-22T03:42:49.993Z,12.27
2023-03-22T03:45:55.517Z,12.17
2023-03-22T03:49:00.253Z,12.37
2023-03-22T03:52:06.070Z,12.46
2023-03-22T03:55:11.034Z,12.33
2023-03-22T03:58:17.657Z,12.33
2023-03-22T04:01:24.481Z,12.37
2023-03-22T04:04:39.327Z,12.11
2023-03-22T04:07:43.281Z,11.98
2023-03-22T04:10:52.054Z,11.99
2023-03-22T04:13:59.059Z,12.18
2023-03-22T04:17:03.378Z,11.94
2023-03-22T04:20:11.155Z,11.99
2023-03-22T04:23:15.424Z,12.14
2023-03-22T04:26:22.164Z,12.03
2023-03-22T04:29:48.736Z,12.01
2023-03-22T04:33:12.598Z,12.13
2023-03-22T04:36:41.094Z,12.22
2023-03-22T04:39:55.281Z,12.32
2023-03-22T04:43:29.145Z,12.32
2023-03-22T04:46:39.548Z,12.50
2023-03-22T04:49:44.584Z,12.50
2023-03-22T04:52:50.185Z,12.60
2023-03-22T04:55:57.436Z,12.51
2023-03-22T04:59:03.719Z,12.57
2023-03-22T05:02:10.655Z,12.61
2023-03-22T05:05:19.151Z,12.60
2023-03-22T05:08:27.281Z,12.65
2023-03-22T05:11:31.450Z,12.81
2023-03-22T05:14:49.366Z,13.04
2023-03-22T05:17:59.878Z,12.92
2023-03-22T05:21:07.054Z,13.08
2023-03-22T05:24:12.552Z,13.04
2023-03-22T05:27:31.744Z,13.05
2023-03-22T05:30:56.657Z,13.34
2023-03-22T05:34:15.255Z,13.35
2023-03-22T05:37:21.487Z,13.44
2023-03-22T05:40:29.905Z,13.40
2023-03-22T05:43:34.579Z,13.38
2023-03-22T05:46:39.153Z,13.25
2023-03-22T05:50:01.631Z,13.34
2023-03-22T05:53:07.339Z,13.33
2023-03-22T05:56:24.574Z,12.99
2023-03-22T05:59:37.151Z,12.73
2023-03-22T06:02:44.437Z,12.77
2023-03-22T06:05:51.111Z,12.98
2023-03-22T06:09:10.645Z,12.81
2023-03-22T06:12:22.914Z,13.11
2023-03-22T06:15:30.988Z,13.34
2023-03-22T06:18:37.769Z,13.39
2023-03-22T06:21:50.874Z,13.51
2023-03-22T06:24:55.526Z,13.33
2023-03-22T06:28:09.568Z,13.42
2023-03-22T06:31:15.989Z,13.04
2023-03-22T06:34:30.732Z,13.18
2023-03-22T06:37:36.705Z,13.22
2023-03-22T06:40:41.557Z,13.22
2023-03-22T06:43:46.046Z,13.33
2023-03-22T06:47:05.215Z,13.39
2023-03-22T06:50:24.464Z,13.39
2023-03-22T06:53:47.640Z,13.45
2023-03-22T06:56:51.738Z,12.95
2023-03-22T06:59:55.845Z,13.40
2023-03-22T07:03:01.195Z,13.57
2023-03-22T07:06:27.446Z,13.56
2023-03-22T07:09:33.937Z,13.08
2023-03-22T07:12:38.867Z,12.87
2023-03-22T07:15:48.598Z,12.47
2023-03-22T07:19:28.120Z,12.54
2023-03-22T07:22:34.569Z,12.47
2023-03-22T07:25:40.382Z,12.58
2023-03-22T07:29:07.328Z,12.47
2023-03-22T07:32:12.064Z,12.58
2023-03-22T07:35:41.438Z,12.89
2023-03-22T07:38:45.757Z,13.17
2023-03-22T07:41:56.838Z,13.25
2023-03-22T07:45:00.904Z,13.39
2023-03-22T07:48:05.408Z,13.53
2023-03-22T07:51:30.276Z,13.53
2023-03-22T07:54:35.301Z,13.25
2023-03-22T07:57:44.212Z,13.36
2023-03-22T08:00:50.038Z,13.16
2023-03-22T08:04:14.418Z,13.53
2023-03-22T08:07:32.063Z,13.63
2023-03-22T08:10:36.202Z,13.83
2023-03-22T08:13:42.962Z,13.97
2023-03-22T08:16:48.320Z,14.01
2023-03-22T08:19:52.595Z,14.08
2023-03-22T08:23:01.439Z,13.92
2023-03-22T08:26:29.269Z,13.99
2023-03-22T08:29:40.660Z,13.89
2023-03-22T08:32:45.102Z,13.85
2023-03-22T08:35:49.345Z,13.89
2023-03-22T08:38:54.712Z,14.07
2023-03-22T08:42:08.878Z,13.98
2023-03-22T08:45:15.369Z,14.08
2023-03-22T08:48:31.128Z,14.27
2023-03-22T08:51:52.926Z,14.30
2023-03-22T08:55:22.752Z,13.75
2023-03-22T08:58:36.346Z,13.73
2023-03-22T09:01:58.587Z,13.82
2023-03-22T09:05:02.972Z,13.68
2023-03-22T09:08:08.197Z,13.89
2023-03-22T09:11:18.176Z,13.90
2023-03-22T09:14:24.538Z,14.08
2023-03-22T09:17:31.125Z,13.70
2023-03-22T09:20:35.397Z,13.79
2023-03-22T09:23:42.791Z,13.93
2023-03-22T09:26:48.809Z,14.14
2023-03-22T09:29:54.972Z,14.07
2023-03-22T09:33:02.374Z,14.25
2023-03-22T09:36:08.231Z,14.04
2023-03-22T09:39:13.240Z,14.08
2023-03-22T09:42:29.799Z,14.26
2023-03-22T09:45:41.532Z,14.13
2023-03-22T09:48:49.531Z,13.91
2023-03-22T09:51:55.767Z,14.51
2023-03-22T09:55:01.317Z,14.32
2023-03-22T09:58:15.192Z,14.49
2023-03-22T10:01:28.519Z,14.57
2023-03-22T10:04:50.276Z,14.36
2023-03-22T10:08:07.985Z,14.75
2023-03-22T10:11:22.374Z,15.09
2023-03-22T10:14:32.515Z,15.29
2023-03-22T10:17:38.511Z,15.50
2023-03-22T10:20:49.466Z,15.38
2023-03-22T10:23:58.826Z,15.58
2023-03-22T10:27:04.114Z,15.18
2023-03-22T10:30:16.030Z,15.16
2023-03-22T10:33:28.314Z,15.37
2023-03-22T10:36:37.414Z,15.64
2023-03-22T10:39:46.719Z,15.68
2023-03-22T10:42:56.372Z,15.80
2023-03-22T10:46:03.035Z,15.96
2023-03-22T10:49:08.896Z,16.04
2023-03-22T10:52:29.380Z,16.02
2023-03-22T10:55:33.542Z,16.22
2023-03-22T10:58:37.699Z,16.29
2023-03-22T11:01:46.790Z,15.81
2023-03-22T11:04:52.975Z,15.82
2023-03-22T11:08:16.707Z,15.88
2023-03-22T11:11:26.693Z,15.75
2023-03-22T11:14:33.584Z,16.02
2023-03-22T11:17:40.493Z,16.32
2023-03-22T11:20:57.524Z,16.47
2023-03-22T11:24:06.329Z,16.53
2023-03-22T11:27:21.832Z,16.39
2023-03-22T11:30:28.257Z,16.64
2023-03-22T11:33:33.339Z,16.75
2023-03-22T11:36:45.425Z,16.90
2023-03-22T11:40:00.704Z,16.81
2023-03-22T11:43:19.528Z,16.64
2023-03-22T11:46:24.449Z,16.89
2023-03-22T11:49:36.772Z,17.04
2023-03-22T11:52:40.934Z,16.55
2023-03-22T11:55:47.633Z,16.82
2023-03-22T11:59:01.258Z,16.74
2023-03-22T12:02:15.642Z,16.65
2023-03-22T12:05:23.277Z,16.45
2023-03-22T12:08:34.489Z,16.41
2023-03-22T12:11:42.208Z,16.65
2023-03-22T12:14:53.428Z,16.68
2023-03-22T12:18:04.960Z,16.58
2023-03-22T12:21:11.801Z,16.51
2023-03-22T12:24:26.948Z,16.45
2023-03-22T12:27:37.904Z,16.65
2023-03-22T12:30:46.433Z,16.64
2023-03-22T12:33:53.899Z,16.77
2023-03-22T12:36:59.201Z,16.78
2023-03-22T12:40:08.075Z,16.77
2023-03-22T12:43:17.703Z,16.66
2023-03-22T12:46:25.922Z,16.67
2023-03-22T12:49:40.823Z,16.61
2023-03-22T12:52:48.682Z,16.40
2023-03-22T12:55:53.585Z,16.82
2023-03-22T12:59:04.370Z,16.81
2023-03-22T13:02:17.356Z,16.92
2023-03-22T13:05:21.639Z,17.08
2023-03-22T13:08:25.868Z,17.51
2023-03-22T13:11:30.019Z,17.48
2023-03-22T13:14:59.430Z,17.94
2023-03-22T13:18:04.870Z,18.10
2023-03-22T13:21:15.270Z,17.88
2023-03-22T13:24:24.161Z,17.81
2023-03-22T13:27:38.185Z,17.68
2023-03-22T13:30:52.893Z,17.40
2023-03-22T13:33:58.312Z,17.30
2023-03-22T13:37:04.061Z,17.07
2023-03-22T13:40:15.261Z,16.98
2023-03-22T13:43:29.131Z,16.90
2023-03-22T13:46:51.201Z,16.73
2023-03-22T13:50:02.434Z,16.61
2023-03-22T13:53:09.727Z,16.76
2023-03-22T13:56:15.988Z,16.84
2023-03-22T13:59:27.577Z,16.55
2023-03-22T14:02:40.165Z,16.55
2023-03-22T14:05:47.681Z,16.41
2023-03-22T14:08:56.124Z,16.23
2023-03-22T14:12:09.047Z,16.34
2023-03-22T14:15:19.207Z,16.36
2023-03-22T14:18:28.367Z,16.29
2023-03-22T14:21:36.308Z,16.34
